Time;durP1;ratioP1;P1;durP2;ratioP2;P2;SDS_P1;SDS_P2;PMS_P1;PMS_P2;Temp;Humidity;BMP_temperature;BMP_pressure;BME280_temperature;BME280_humidity;BME280_pressure;Samples;Min_cycle;Max_cycle;Signal;HPM_P1;HPM_P2
2022/06/04 00:00:47;;;;;;;4.20;2.92;;;21.50;83.20;;;;;;5092895;28;20028;-71
2022/06/04 00:03:13;;;;;;;5.20;3.20;;;21.50;83.10;;;;;;5075095;28;20024;-72
2022/06/04 00:05:42;;;;;;;4.80;3.10;;;21.60;83.60;;;;;;5090917;28;20032;-71
2022/06/04 00:08:10;;;;;;;4.28;3.38;;;21.60;83.50;;;;;;5093098;28;20086;-71
2022/06/04 00:16:11;;;;;;;4.82;3.75;;;21.70;84.10;;;;;;5095520;28;20111;-72
2022/06/04 00:18:40;;;;;;;3.85;3.30;;;21.70;83.70;;;;;;5039163;28;20492;-71
2022/06/04 00:21:07;;;;;;;4.07;3.22;;;21.70;83.50;;;;;;5056845;28;20025;-71
2022/06/04 00:23:33;;;;;;;5.03;3.30;;;21.70;83.50;;;;;;5060020;28;20025;-71
2022/06/04 00:26:02;;;;;;;5.07;3.83;;;21.70;83.50;;;;;;5076769;28;20025;-71
2022/06/04 00:28:27;;;;;;;6.68;4.40;;;21.70;83.10;;;;;;5076117;28;20027;-71
2022/06/04 00:30:55;;;;;;;9.00;4.22;;;21.70;83.50;;;;;;5096688;28;20028;-71
2022/06/04 00:33:22;;;;;;;6.97;4.53;;;21.70;83.10;;;;;;5078740;28;20598;-71
2022/06/04 00:35:51;;;;;;;8.20;5.03;;;21.70;83.20;;;;;;5096828;28;20028;-71
2022/06/04 00:38:20;;;;;;;5.13;4.63;;;21.70;83.20;;;;;;5095847;28;20059;-71
2022/06/04 00:40:55;;;;;;;6.72;5.13;;;21.70;83.30;;;;;;5095194;28;20027;-71
2022/06/04 00:43:21;;;;;;;7.15;5.13;;;21.70;83.00;;;;;;5078614;28;20032;-71
2022/06/04 00:46:15;;;;;;;8.00;5.43;;;21.70;83.30;;;;;;5096837;28;20024;-71
2022/06/04 00:48:41;;;;;;;8.57;5.17;;;21.60;81.90;;;;;;5072654;28;20036;-71
2022/06/04 00:51:07;;;;;;;7.28;5.38;;;21.70;83.20;;;;;;5056425;28;20021;-71
2022/06/04 00:53:35;;;;;;;5.45;4.75;;;21.60;83.10;;;;;;5065570;28;20063;-71
2022/06/04 00:56:22;;;;;;;7.80;5.78;;;21.60;83.00;;;;;;5076326;28;20424;-71
2022/06/04 00:58:59;;;;;;;7.03;4.85;;;21.60;82.20;;;;;;5036464;28;20026;-71
2022/06/04 01:01:50;;;;;;;8.20;5.80;;;21.60;83.10;;;;;;5036351;28;20113;-71
2022/06/04 01:07:33;;;;;;;7.32;5.00;;;21.60;82.30;;;;;;5067432;28;20091;-71
2022/06/04 01:10:33;;;;;;;5.68;5.15;;;21.60;82.60;;;;;;5075880;28;20031;-71
2022/06/04 01:13:14;;;;;;;5.03;4.53;;;21.50;81.50;;;;;;5057852;28;20028;-71
2022/06/04 01:16:11;;;;;;;7.13;6.47;;;21.50;82.00;;;;;;5041728;28;20033;-71
2022/06/04 01:19:24;;;;;;;8.10;7.10;;;21.50;81.90;;;;;;5054249;28;20021;-71
2022/06/04 01:22:33;;;;;;;9.30;6.90;;;21.50;81.50;;;;;;5055046;28;20017;-71
2022/06/04 01:25:25;;;;;;;8.52;7.63;;;21.50;81.20;;;;;;5055466;28;20029;-72
2022/06/04 01:28:14;;;;;;;9.85;7.70;;;21.40;82.60;;;;;;5062683;28;20060;-71
2022/06/04 01:30:48;;;;;;;9.27;8.23;;;21.40;81.00;;;;;;5052964;28;20361;-71
2022/06/04 01:33:25;;;;;;;8.60;7.80;;;21.40;81.90;;;;;;5017811;28;20384;-71
2022/06/04 01:36:32;;;;;;;10.30;8.05;;;21.30;81.40;;;;;;5035246;28;20041;-71
2022/06/04 01:39:14;;;;;;;9.00;8.10;;;21.30;80.80;;;;;;5017592;28;20032;-71
2022/06/04 01:41:56;;;;;;;16.33;9.68;;;21.20;81.00;;;;;;5053793;28;20108;-71
2022/06/04 01:44:32;;;;;;;11.57;8.57;;;21.20;80.90;;;;;;5072380;28;20040;-71
2022/06/04 01:47:01;;;;;;;10.98;9.23;;;21.10;81.20;;;;;;5071398;28;20024;-71
2022/06/04 01:49:48;;;;;;;12.18;8.73;;;21.10;81.70;;;;;;5037086;28;20034;-71
2022/06/04 01:52:35;;;;;;;11.82;8.52;;;21.00;81.10;;;;;;5034885;28;20104;-71
2022/06/04 01:55:16;;;;;;;8.55;7.63;;;21.00;81.60;;;;;;5035144;28;20049;-71
2022/06/04 01:57:48;;;;;;;9.60;7.70;;;21.00;81.00;;;;;;5065477;28;20491;-72
2022/06/04 02:00:17;;;;;;;8.73;7.45;;;21.00;81.50;;;;;;5072484;28;20100;-71
2022/06/04 02:02:53;;;;;;;8.93;7.05;;;20.90;81.80;;;;;;5037115;28;20017;-71
2022/06/04 02:05:31;;;;;;;9.70;7.80;;;20.90;81.10;;;;;;5055049;28;20032;-71
2022/06/04 02:07:59;;;;;;;9.10;7.22;;;20.90;81.10;;;;;;5035976;28;20520;-71
2022/06/04 02:10:37;;;;;;;11.10;7.50;;;20.80;81.20;;;;;;5017152;28;20108;-71
2022/06/04 02:13:08;;;;;;;10.02;8.27;;;20.80;80.70;;;;;;5034710;28;20028;-71
2022/06/04 02:15:43;;;;;;;11.57;7.68;;;20.70;80.80;;;;;;5034514;28;20029;-71
2022/06/04 02:18:10;;;;;;;10.65;8.93;;;20.70;80.60;;;;;;5037703;28;20028;-71
2022/06/04 02:20:37;;;;;;;9.18;7.32;;;20.70;81.10;;;;;;5053192;28;20434;-71
2022/06/04 02:23:04;;;;;;;8.60;7.30;;;20.60;81.10;;;;;;5054597;28;20136;-71
2022/06/04 02:25:32;;;;;;;8.95;7.65;;;20.60;81.10;;;;;;5054476;28;20104;-71
2022/06/04 02:27:58;;;;;;;10.80;6.95;;;20.60;81.00;;;;;;5054126;28;20164;-71
2022/06/04 02:30:37;;;;;;;9.25;6.35;;;20.60;81.10;;;;;;5049605;28;20439;-71
2022/06/04 02:33:15;;;;;;;8.43;6.00;;;20.60;80.70;;;;;;5073956;28;20464;-71
2022/06/04 02:36:07;;;;;;;7.35;6.10;;;20.60;81.30;;;;;;5055637;28;20029;-72
2022/06/04 02:38:54;;;;;;;8.15;6.70;;;20.50;79.90;;;;;;5034228;28;20024;-72
2022/06/04 02:41:45;;;;;;;7.20;6.13;;;20.50;80.20;;;;;;5034282;28;20033;-71
2022/06/04 02:44:26;;;;;;;9.23;6.55;;;20.40;79.90;;;;;;5029398;28;20425;-72
2022/06/04 02:47:15;;;;;;;6.38;5.78;;;20.40;80.10;;;;;;5045924;28;20169;-71
2022/06/04 02:50:06;;;;;;;7.00;6.30;;;20.40;80.30;;;;;;5016715;28;20029;-71
2022/06/04 02:52:34;;;;;;;8.00;5.90;;;20.30;79.90;;;;;;5061544;28;20112;-71
2022/06/04 02:55:08;;;;;;;6.97;5.95;;;20.30;80.50;;;;;;5073702;28;20044;-71
2022/06/04 02:57:39;;;;;;;7.47;6.75;;;20.30;80.70;;;;;;5073838;28;20028;-71
2022/06/04 03:00:06;;;;;;;6.88;6.15;;;20.30;81.10;;;;;;5073985;28;20024;-71
2022/06/04 03:02:35;;;;;;;8.07;6.70;;;20.40;81.50;;;;;;5055843;28;20108;-71
2022/06/04 03:05:15;;;;;;;9.50;6.57;;;20.30;81.50;;;;;;5047634;28;20124;-71
2022/06/04 03:07:44;;;;;;;8.15;6.80;;;20.40;81.40;;;;;;5073014;28;20024;-71
2022/06/04 03:10:14;;;;;;;9.77;6.57;;;20.40;81.70;;;;;;5073399;28;20494;-71
2022/06/04 03:12:40;;;;;;;7.32;6.45;;;20.40;81.70;;;;;;5072697;28;20033;-71
2022/06/04 03:15:06;;;;;;;8.27;5.93;;;20.50;82.00;;;;;;5073965;28;20044;-71
2022/06/04 03:17:32;;;;;;;8.60;6.78;;;20.50;82.00;;;;;;5069804;28;20036;-71
2022/06/04 03:19:58;;;;;;;7.20;5.63;;;20.50;82.10;;;;;;5047401;28;20388;-71
2022/06/04 03:22:24;;;;;;;6.68;5.38;;;20.60;82.20;;;;;;5035835;28;20032;-71
2022/06/04 03:24:50;;;;;;;7.93;5.93;;;20.60;82.20;;;;;;5035634;28;20025;-71
2022/06/04 03:27:16;;;;;;;7.20;5.95;;;20.60;82.20;;;;;;5046051;28;20095;-71
2022/06/04 03:29:41;;;;;;;10.68;6.07;;;20.60;82.20;;;;;;5062468;28;20028;-71
2022/06/04 03:32:07;;;;;;;8.55;6.60;;;20.70;82.20;;;;;;5072725;28;20514;-72
2022/06/04 03:34:33;;;;;;;9.35;6.28;;;20.70;81.90;;;;;;5047150;28;20037;-71
2022/06/04 03:36:59;;;;;;;8.82;6.25;;;20.70;81.70;;;;;;5014749;28;20026;-72
2022/06/04 03:39:25;;;;;;;6.60;5.90;;;20.70;81.50;;;;;;5049666;28;20357;-71
2022/06/04 03:41:50;;;;;;;7.07;5.97;;;20.60;81.30;;;;;;5058762;28;20040;-71
2022/06/04 03:44:16;;;;;;;11.15;7.93;;;20.60;81.20;;;;;;5073595;28;20037;-71
2022/06/04 03:46:42;;;;;;;10.77;7.93;;;20.60;81.10;;;;;;5055753;28;20025;-71
2022/06/04 03:49:08;;;;;;;10.45;8.82;;;20.60;80.90;;;;;;5052297;28;20037;-71
2022/06/04 03:51:34;;;;;;;12.52;9.77;;;20.50;80.70;;;;;;5035363;28;20124;-71
2022/06/04 03:54:00;;;;;;;10.85;9.20;;;20.50;80.60;;;;;;5054392;28;20054;-71
2022/06/04 03:56:27;;;;;;;10.77;9.00;;;20.40;80.60;;;;;;5073135;28;20044;-71
2022/06/04 03:58:53;;;;;;;11.88;9.05;;;20.40;80.90;;;;;;5072116;28;20428;-71
2022/06/04 04:01:22;;;;;;;10.15;8.80;;;20.40;81.20;;;;;;5071560;28;20078;-72
2022/06/04 04:03:48;;;;;;;8.45;7.25;;;20.40;81.30;;;;;;5073282;28;20021;-71
2022/06/04 04:06:16;;;;;;;15.57;7.93;;;20.40;81.70;;;;;;5056169;28;20024;-72
2022/06/04 04:08:42;;;;;;;10.30;8.48;;;20.50;81.90;;;;;;5073295;28;20028;-71
2022/06/04 04:11:17;;;;;;;10.88;7.22;;;20.50;81.90;;;;;;5055254;28;20036;-71
2022/06/04 04:13:44;;;;;;;11.98;8.93;;;20.50;81.60;;;;;;5073125;28;20380;-71
2022/06/04 04:16:11;;;;;;;16.27;9.82;;;20.60;81.70;;;;;;5073107;28;20452;-71
2022/06/04 04:18:38;;;;;;;11.25;7.97;;;20.60;81.40;;;;;;5046771;28;20114;-71
2022/06/04 04:21:06;;;;;;;12.43;8.68;;;20.50;81.50;;;;;;5073149;28;20017;-71
2022/06/04 04:23:33;;;;;;;9.18;7.97;;;20.60;81.70;;;;;;5072808;28;20464;-71
2022/06/04 04:25:59;;;;;;;10.27;7.40;;;20.60;82.10;;;;;;5073397;28;20032;-71
2022/06/04 04:28:24;;;;;;;8.00;6.78;;;20.60;82.50;;;;;;5055061;28;20021;-71
2022/06/04 04:30:50;;;;;;;9.35;7.50;;;20.70;82.90;;;;;;5070087;28;20025;-71
2022/06/04 04:33:16;;;;;;;8.40;6.43;;;20.80;83.20;;;;;;5072890;28;20476;-71
2022/06/04 04:35:43;;;;;;;9.90;8.18;;;20.90;83.50;;;;;;5072607;28;20029;-71
2022/06/04 04:38:11;;;;;;;12.80;9.15;;;21.00;83.60;;;;;;5072290;28;20039;-72
2022/06/04 04:40:40;;;;;;;10.95;8.45;;;21.10;83.50;;;;;;5072658;28;20108;-72
2022/06/04 04:43:06;;;;;;;8.48;7.63;;;21.10;83.10;;;;;;5054909;28;20199;-71
2022/06/04 04:45:32;;;;;;;11.15;9.18;;;21.20;83.20;;;;;;5070669;28;20123;-72
2022/06/04 04:47:58;;;;;;;10.00;8.55;;;21.30;83.10;;;;;;5071915;28;20086;-72
2022/06/04 04:50:36;;;;;;;10.73;8.65;;;21.40;83.00;;;;;;5054882;28;20029;-72
2022/06/04 04:53:05;;;;;;;11.13;7.88;;;21.30;82.30;;;;;;5015081;28;20084;-72
2022/06/04 04:55:32;;;;;;;8.80;7.93;;;21.40;82.50;;;;;;5032857;28;20037;-72
2022/06/04 04:57:58;;;;;;;9.85;8.10;;;21.40;82.50;;;;;;5071111;28;20064;-71
2022/06/04 05:00:24;;;;;;;8.00;7.20;;;21.50;83.00;;;;;;5076494;28;20024;-71
2022/06/04 05:02:50;;;;;;;10.93;8.80;;;21.60;83.40;;;;;;5076400;28;20056;-72
2022/06/04 05:05:16;;;;;;;8.93;8.02;;;21.70;83.50;;;;;;5058439;28;20060;-72
2022/06/04 05:07:42;;;;;;;8.63;7.68;;;21.70;83.30;;;;;;5076004;28;20035;-72
2022/06/04 05:10:09;;;;;;;9.77;8.30;;;21.80;83.20;;;;;;5070696;28;20400;-72
2022/06/04 05:12:35;;;;;;;7.95;6.45;;;21.90;83.20;;;;;;5075998;28;20028;-72
2022/06/04 05:15:01;;;;;;;7.15;6.45;;;22.00;83.40;;;;;;5076105;28;20112;-72
2022/06/04 05:17:27;;;;;;;11.02;9.15;;;22.10;83.70;;;;;;5065338;28;20108;-71
2022/06/04 05:19:53;;;;;;;10.20;8.45;;;22.10;83.60;;;;;;5056036;28;20036;-72
2022/06/04 05:22:19;;;;;;;8.32;7.53;;;22.20;83.10;;;;;;5065974;28;20024;-72
2022/06/04 05:24:45;;;;;;;10.40;8.38;;;22.30;82.90;;;;;;5057971;28;20043;-72
2022/06/04 05:27:10;;;;;;;9.30;6.45;;;22.30;82.40;;;;;;5057122;28;20028;-72
2022/06/04 05:29:37;;;;;;;9.00;7.30;;;22.40;82.40;;;;;;5057670;28;20056;-72
2022/06/04 05:32:09;;;;;;;7.75;6.97;;;22.40;82.50;;;;;;5075745;28;20114;-72
2022/06/04 05:34:35;;;;;;;8.93;7.70;;;22.40;82.30;;;;;;5059118;28;20025;-72
2022/06/04 05:37:02;;;;;;;11.73;7.85;;;22.50;82.30;;;;;;5072277;28;20063;-72
2022/06/04 05:39:31;;;;;;;10.88;9.40;;;22.50;82.40;;;;;;5074816;28;20024;-72
2022/06/04 05:41:58;;;;;;;12.38;9.43;;;22.50;81.50;;;;;;5057767;28;20119;-72
2022/06/04 05:44:24;;;;;;;11.90;10.15;;;22.60;81.60;;;;;;5057536;28;20029;-72
2022/06/04 05:46:50;;;;;;;11.50;9.95;;;22.60;81.20;;;;;;5074380;28;20386;-72
2022/06/04 05:49:17;;;;;;;10.95;9.95;;;22.60;80.90;;;;;;5057607;28;20028;-72
2022/06/04 05:51:44;;;;;;;12.43;9.68;;;22.60;80.60;;;;;;5075219;28;20020;-72
2022/06/04 05:54:11;;;;;;;12.23;10.38;;;22.60;80.80;;;;;;5056758;28;20059;-72
2022/06/04 05:56:40;;;;;;;12.25;10.45;;;22.60;81.10;;;;;;5075453;28;20067;-72
2022/06/04 05:59:09;;;;;;;11.13;10.00;;;22.70;81.10;;;;;;5069975;28;20473;-72
2022/06/04 06:01:35;;;;;;;12.55;9.95;;;22.80;81.40;;;;;;5075371;28;20024;-71
2022/06/04 06:04:01;;;;;;;11.65;10.38;;;22.80;82.00;;;;;;5075231;28;20020;-72
2022/06/04 06:06:31;;;;;;;16.80;10.50;;;22.90;82.20;;;;;;5054470;28;20029;-72
2022/06/04 06:08:59;;;;;;;11.48;10.38;;;23.00;81.40;;;;;;5065964;28;20373;-72
2022/06/04 06:11:25;;;;;;;12.23;10.85;;;23.00;81.00;;;;;;5053537;28;20412;-72
2022/06/04 06:13:52;;;;;;;12.63;10.93;;;23.10;81.30;;;;;;5035136;28;20026;-72
2022/06/04 06:16:23;;;;;;;12.32;11.00;;;23.20;81.50;;;;;;5047410;28;20064;-72
2022/06/04 06:18:50;;;;;;;11.63;10.55;;;23.20;81.50;;;;;;5036994;28;20059;-72
2022/06/04 06:21:18;;;;;;;13.48;12.07;;;23.30;82.10;;;;;;5036996;28;20028;-72
2022/06/04 06:23:44;;;;;;;13.65;12.05;;;23.40;81.70;;;;;;5052961;28;20358;-72
2022/06/04 06:26:14;;;;;;;14.88;11.90;;;23.50;80.90;;;;;;5074799;28;20484;-72
2022/06/04 06:28:41;;;;;;;14.65;11.75;;;23.60;80.40;;;;;;5074082;28;20043;-73
2022/06/04 06:31:08;;;;;;;12.88;11.55;;;23.60;80.20;;;;;;5056774;28;20024;-72
2022/06/04 06:33:34;;;;;;;16.08;12.45;;;23.70;80.60;;;;;;5074565;28;20028;-72
2022/06/04 06:36:04;;;;;;;14.85;13.20;;;23.80;80.70;;;;;;5071623;28;20112;-73
2022/06/04 06:38:31;;;;;;;23.17;13.93;;;23.90;80.50;;;;;;5056419;28;20056;-72
2022/06/04 06:40:58;;;;;;;14.93;12.75;;;24.00;80.50;;;;;;5056570;28;20044;-72
2022/06/04 06:43:35;;;;;;;14.27;12.13;;;24.00;79.40;;;;;;5074187;28;20479;-73
2022/06/04 06:46:24;;;;;;;14.45;10.63;;;24.10;78.80;;;;;;5056597;28;20064;-73
2022/06/04 06:48:52;;;;;;;13.77;11.35;;;24.20;78.20;;;;;;5068778;28;20031;-73
2022/06/04 06:51:29;;;;;;;16.23;13.38;;;24.20;76.10;;;;;;5073149;28;20020;-73
2022/06/04 06:53:55;;;;;;;15.30;11.68;;;24.20;74.90;;;;;;5056061;28;20048;-73
2022/06/04 06:56:27;;;;;;;13.40;11.88;;;24.30;75.40;;;;;;5056258;28;20111;-73
2022/06/04 06:58:54;;;;;;;15.15;12.13;;;24.30;75.70;;;;;;5056331;28;20359;-73
2022/06/04 07:01:21;;;;;;;15.68;11.90;;;24.30;75.50;;;;;;5069103;28;20028;-73
2022/06/04 07:03:48;;;;;;;13.45;12.00;;;24.40;75.20;;;;;;5074088;28;20473;-74
2022/06/04 07:06:14;;;;;;;16.02;11.63;;;24.50;76.90;;;;;;5038758;28;20033;-74
2022/06/04 07:08:42;;;;;;;12.98;10.98;;;24.60;75.70;;;;;;5056348;28;20399;-71
2022/06/04 07:11:08;;;;;;;13.43;11.15;;;24.70;75.60;;;;;;5073590;28;20024;-73
2022/06/04 07:13:34;;;;;;;18.45;12.35;;;24.80;75.60;;;;;;5066880;28;20116;-73
2022/06/04 07:16:00;;;;;;;13.52;11.07;;;24.90;73.50;;;;;;5053775;28;20532;-72
2022/06/04 07:18:26;;;;;;;13.68;10.85;;;24.90;73.30;;;;;;5051987;28;20047;-72
2022/06/04 07:20:52;;;;;;;18.27;14.13;;;24.90;73.70;;;;;;5034976;28;20029;-73
2022/06/04 07:23:18;;;;;;;16.55;14.13;;;24.90;70.90;;;;;;5053398;28;20484;-72
2022/06/04 07:25:45;;;;;;;16.55;13.07;;;24.90;70.00;;;;;;5036380;28;20025;-72
2022/06/04 07:28:13;;;;;;;15.75;12.63;;;24.80;70.80;;;;;;5055707;28;20056;-72
2022/06/04 07:30:39;;;;;;;15.43;13.57;;;24.80;70.60;;;;;;5073629;28;20032;-73
2022/06/04 07:33:05;;;;;;;19.08;14.05;;;24.80;70.40;;;;;;5055641;28;20031;-74
2022/06/04 07:35:31;;;;;;;18.42;13.52;;;24.70;69.60;;;;;;5073136;28;20499;-72
2022/06/04 07:37:57;;;;;;;19.63;13.90;;;24.60;68.60;;;;;;5053396;28;20032;-74
2022/06/04 07:40:23;;;;;;;16.67;13.27;;;24.50;69.90;;;;;;5073270;28;20048;-72
2022/06/04 07:42:48;;;;;;;16.77;12.57;;;24.40;69.10;;;;;;5055285;28;20029;-72
2022/06/04 07:45:15;;;;;;;16.17;13.20;;;24.40;69.50;;;;;;5055337;28;20031;-72
2022/06/04 07:47:41;;;;;;;13.90;11.35;;;24.30;70.10;;;;;;5054958;28;20033;-72
2022/06/04 07:50:12;;;;;;;12.00;10.60;;;24.20;70.30;;;;;;5073426;28;20478;-73
2022/06/04 07:52:38;;;;;;;12.40;10.88;;;24.20;70.10;;;;;;5053303;28;20059;-74
2022/06/04 07:55:06;;;;;;;12.55;10.32;;;24.20;69.90;;;;;;5072759;28;20052;-75
2022/06/04 07:57:36;;;;;;;12.18;10.23;;;24.20;70.00;;;;;;5073326;28;20028;-72
2022/06/04 08:00:04;;;;;;;12.40;9.77;;;24.20;70.30;;;;;;5072975;28;20066;-73
2022/06/04 08:02:30;;;;;;;10.70;9.30;;;24.20;70.90;;;;;;5072834;28;20027;-73
2022/06/04 08:04:55;;;;;;;11.85;7.80;;;24.20;71.30;;;;;;5071615;28;20476;-73
2022/06/04 08:07:23;;;;;;;9.82;7.85;;;24.20;71.50;;;;;;5072303;28;20078;-73
2022/06/04 08:09:49;;;;;;;12.35;8.05;;;24.20;72.00;;;;;;5055182;28;20392;-73
2022/06/04 08:12:16;;;;;;;10.18;7.68;;;24.20;70.80;;;;;;5070551;28;20447;-73
2022/06/04 08:14:42;;;;;;;10.43;7.28;;;24.30;71.60;;;;;;5052989;28;20029;-73
2022/06/04 08:17:09;;;;;;;6.65;5.95;;;24.30;70.00;;;;;;5048394;28;20484;-74
2022/06/04 08:19:35;;;;;;;5.97;5.35;;;24.30;71.00;;;;;;5055032;28;20112;-74
2022/06/04 08:22:01;;;;;;;7.05;6.28;;;24.30;70.70;;;;;;5072744;28;20427;-74
2022/06/04 08:24:27;;;;;;;6.97;5.70;;;24.30;69.40;;;;;;5055010;28;20028;-74
2022/06/04 08:26:58;;;;;;;8.40;5.32;;;24.30;70.00;;;;;;5073010;28;20021;-74
2022/06/04 08:29:26;;;;;;;6.20;5.28;;;24.40;69.40;;;;;;5053087;28;20115;-74
2022/06/04 08:31:51;;;;;;;6.88;4.90;;;24.50;70.50;;;;;;5056770;28;20033;-74
2022/06/04 08:34:17;;;;;;;6.07;4.63;;;24.40;70.20;;;;;;5058054;28;20029;-74
2022/06/04 08:36:43;;;;;;;4.95;4.43;;;24.50;70.50;;;;;;5056610;28;20025;-75
2022/06/04 08:39:09;;;;;;;7.47;4.45;;;24.50;69.80;;;;;;5056558;28;20068;-75
2022/06/04 08:41:44;;;;;;;6.25;4.63;;;24.60;69.50;;;;;;5054526;28;20032;-75
2022/06/04 08:44:20;;;;;;;8.15;4.38;;;24.60;69.60;;;;;;5053240;28;20029;-74
2022/06/04 08:46:59;;;;;;;7.68;5.85;;;24.70;69.70;;;;;;5062115;28;20104;-74
2022/06/04 08:49:32;;;;;;;5.60;4.82;;;24.70;68.70;;;;;;5056326;28;20580;-74
2022/06/04 08:52:02;;;;;;;6.63;4.50;;;24.80;69.30;;;;;;5038564;28;20139;-73
2022/06/04 08:57:32;;;;;;;6.00;3.47;;;24.80;69.00;;;;;;5076119;28;20056;-74
2022/06/04 08:59:58;;;;;;;3.47;3.00;;;24.90;69.20;;;;;;5058401;28;20028;-73
2022/06/04 09:02:47;;;;;;;8.30;3.17;;;25.00;67.90;;;;;;5076288;28;20471;-74
2022/06/04 09:05:31;;;;;;;5.68;3.05;;;25.00;65.90;;;;;;5058107;28;20036;-74
2022/06/04 09:08:03;;;;;;;3.67;2.72;;;25.00;65.60;;;;;;5076382;28;20025;-75
2022/06/04 09:10:44;;;;;;;5.25;3.50;;;25.00;65.70;;;;;;5057990;28;20039;-75
2022/06/04 09:13:14;;;;;;;4.55;3.25;;;25.10;66.20;;;;;;5038379;28;20548;-75
2022/06/04 09:15:45;;;;;;;2.58;2.30;;;25.10;66.30;;;;;;5051690;28;20120;-75
2022/06/04 09:18:24;;;;;;;4.22;3.00;;;25.20;64.90;;;;;;5058191;28;20035;-75
2022/06/04 09:20:55;;;;;;;3.80;2.58;;;25.20;64.50;;;;;;5057282;28;20494;-75
2022/06/04 09:23:34;;;;;;;3.50;2.60;;;25.20;64.60;;;;;;5057691;28;20111;-75
2022/06/04 09:26:15;;;;;;;6.30;2.70;;;25.30;63.00;;;;;;5075989;28;20032;-74
2022/06/04 09:29:04;;;;;;;6.38;2.70;;;25.20;62.50;;;;;;5081029;28;20025;-74
2022/06/04 09:31:41;;;;;;;3.40;2.42;;;25.30;62.00;;;;;;5075207;28;20134;-74
2022/06/04 09:34:15;;;;;;;3.10;2.67;;;25.30;61.00;;;;;;5079288;28;20032;-74
2022/06/04 09:36:45;;;;;;;4.80;2.40;;;25.30;61.70;;;;;;5090845;28;20429;-74
2022/06/04 09:39:28;;;;;;;4.15;2.45;;;25.30;61.10;;;;;;5087992;28;20032;-75
2022/06/04 09:42:00;;;;;;;3.90;2.65;;;25.30;61.50;;;;;;5072225;28;20550;-75
2022/06/04 09:44:28;;;;;;;2.72;2.30;;;25.30;61.00;;;;;;5066952;28;20379;-75
2022/06/04 09:47:15;;;;;;;4.00;2.40;;;25.40;61.00;;;;;;5067382;28;20104;-73
2022/06/04 09:49:52;;;;;;;3.72;2.50;;;25.40;62.20;;;;;;5067986;28;20158;-73
2022/06/04 09:52:37;;;;;;;5.30;2.60;;;25.50;62.10;;;;;;5074802;28;20037;-73
2022/06/04 09:55:24;;;;;;;4.57;2.63;;;25.50;63.20;;;;;;5078044;28;20036;-73
2022/06/04 09:58:17;;;;;;;4.47;2.10;;;25.60;62.70;;;;;;5081675;28;20038;-74
2022/06/04 10:00:59;;;;;;;5.35;2.53;;;25.70;62.30;;;;;;5057178;28;20025;-74
2022/06/04 10:03:25;;;;;;;3.65;2.22;;;25.80;60.50;;;;;;5075076;28;20035;-74
2022/06/04 10:06:02;;;;;;;2.55;1.90;;;25.80;60.30;;;;;;5056847;28;20400;-74
2022/06/04 10:08:29;;;;;;;5.50;2.60;;;25.80;60.60;;;;;;5074919;28;20028;-74
2022/06/04 10:11:03;;;;;;;6.15;3.50;;;25.90;60.40;;;;;;5074746;28;20388;-74
2022/06/04 10:13:43;;;;;;;8.20;2.58;;;26.00;60.60;;;;;;5074921;28;20087;-74
2022/06/04 10:16:20;;;;;;;4.43;3.22;;;26.00;61.80;;;;;;5056760;28;20044;-75
2022/06/04 10:19:11;;;;;;;4.78;2.90;;;26.20;61.50;;;;;;5074349;28;20032;-74
2022/06/04 10:21:37;;;;;;;4.32;2.50;;;26.20;60.00;;;;;;5056969;28;20068;-74
2022/06/04 10:24:23;;;;;;;4.75;2.13;;;26.30;58.90;;;;;;5074510;28;20104;-74
2022/06/04 10:27:07;;;;;;;5.22;2.85;;;26.40;58.80;;;;;;5057009;28;20031;-74
2022/06/04 10:30:01;;;;;;;4.43;2.67;;;26.60;58.50;;;;;;5074792;28;20111;-75
2022/06/04 10:33:12;;;;;;;3.60;2.58;;;26.80;61.50;;;;;;5065694;28;20047;-74
2022/06/04 10:36:17;;;;;;;3.90;2.58;;;27.10;59.80;;;;;;5008912;28;20051;-75
2022/06/04 10:39:01;;;;;;;5.28;2.70;;;27.40;59.10;;;;;;5063215;28;20025;-74
2022/06/04 10:41:52;;;;;;;3.95;2.40;;;27.60;58.30;;;;;;5070423;28;20029;-74
2022/06/04 10:44:33;;;;;;;4.43;2.70;;;27.70;58.70;;;;;;5074092;28;20433;-75
2022/06/04 10:47:16;;;;;;;5.43;2.60;;;27.90;58.20;;;;;;5055328;28;20029;-76
2022/06/04 10:50:09;;;;;;;3.28;2.60;;;27.90;57.30;;;;;;5072338;28;20025;-77
2022/06/04 10:52:45;;;;;;;3.90;3.20;;;28.00;56.10;;;;;;5056017;28;20031;-77
2022/06/04 10:55:23;;;;;;;3.85;2.78;;;28.00;57.10;;;;;;5060971;28;20084;-76
2022/06/04 10:58:12;;;;;;;3.97;2.40;;;28.00;56.50;;;;;;5055600;28;20039;-76
2022/06/04 11:00:53;;;;;;;3.80;2.63;;;28.00;56.80;;;;;;5061704;28;20036;-76
2022/06/04 11:03:36;;;;;;;4.78;2.10;;;28.00;55.50;;;;;;5070478;28;20055;-76
2022/06/04 11:06:38;;;;;;;2.88;2.35;;;28.00;55.50;;;;;;5061029;28;20068;-76
2022/06/04 11:09:11;;;;;;;4.68;2.63;;;28.00;54.80;;;;;;5060201;28;20490;-76
2022/06/04 11:11:43;;;;;;;6.68;2.30;;;27.90;53.80;;;;;;5073982;28;20028;-75
2022/06/04 11:14:22;;;;;;;3.97;2.50;;;28.00;54.80;;;;;;5055398;28;20024;-74
2022/06/04 11:17:06;;;;;;;3.40;2.33;;;28.10;55.50;;;;;;5055761;28;20032;-74
2022/06/04 11:19:55;;;;;;;6.22;2.70;;;28.30;56.90;;;;;;5055573;28;20730;-73
2022/06/04 11:23:05;;;;;;;3.28;2.13;;;28.60;54.70;;;;;;5055660;28;20263;-73
2022/06/04 11:25:34;;;;;;;3.58;2.20;;;28.80;54.90;;;;;;5023986;28;20131;-73
2022/06/04 11:28:08;;;;;;;3.85;2.08;;;29.00;54.00;;;;;;5055300;28;20384;-73
2022/06/04 11:30:53;;;;;;;;;;;29.10;52.50;;;;;;5055918;28;20025;-73
2022/06/04 11:33:45;;;;;;;2.75;2.00;;;29.20;55.10;;;;;;5055389;28;19914;-73
2022/06/04 11:36:36;;;;;;;4.68;2.53;;;29.20;54.50;;;;;;5055290;28;20037;-73
2022/06/04 11:39:26;;;;;;;3.55;2.05;;;29.20;53.50;;;;;;5055481;28;20357;-73
2022/06/04 11:42:06;;;;;;;5.18;2.08;;;29.20;53.30;;;;;;5055298;28;20025;-73
2022/06/04 11:44:50;;;;;;;4.35;2.15;;;29.10;51.50;;;;;;5055373;28;20024;-73
2022/06/04 11:47:29;;;;;;;5.82;2.00;;;29.10;51.80;;;;;;5055304;28;20024;-73
2022/06/04 11:50:14;;;;;;;3.38;2.10;;;29.00;53.00;;;;;;5053703;28;20024;-74
2022/06/04 11:53:23;;;;;;;3.67;2.28;;;29.00;53.50;;;;;;5069520;28;20039;-73
2022/06/04 11:55:58;;;;;;;3.08;1.92;;;29.00;53.70;;;;;;5028532;28;20053;-73
2022/06/04 11:58:50;;;;;;;3.00;1.90;;;29.00;52.00;;;;;;5036294;28;20064;-73
2022/06/04 12:01:23;;;;;;;3.55;1.80;;;29.00;51.90;;;;;;5035102;28;20516;-73
2022/06/04 12:03:56;;;;;;;2.63;1.70;;;29.10;51.90;;;;;;5034213;28;20032;-72
2022/06/04 12:06:42;;;;;;;3.90;1.90;;;29.10;52.30;;;;;;5035208;28;20311;-73
2022/06/04 12:09:22;;;;;;;5.45;1.92;;;29.10;53.10;;;;;;5072090;28;20372;-73
2022/06/04 12:11:48;;;;;;;4.20;1.90;;;29.10;51.90;;;;;;5054975;28;20038;-73
2022/06/04 12:14:46;;;;;;;4.82;2.08;;;29.20;49.30;;;;;;5054857;28;20123;-72
2022/06/04 12:17:15;;;;;;;10.18;1.98;;;29.20;50.00;;;;;;5073082;28;20426;-72
2022/06/04 12:25:37;;;;;;;4.45;1.63;;;29.40;48.30;;;;;;5072718;28;20051;-72
2022/06/04 12:28:19;;;;;;;2.08;1.42;;;29.60;48.40;;;;;;5054939;28;20021;-73
2022/06/04 12:30:48;;;;;;;4.47;1.50;;;29.70;49.40;;;;;;5054754;28;20020;-73
2022/06/04 12:33:22;;;;;;;2.60;1.20;;;29.90;48.80;;;;;;5072497;28;20020;-72
2022/06/04 12:36:23;;;;;;;3.45;1.35;;;30.10;49.10;;;;;;5053860;28;20045;-73
2022/06/04 12:39:20;;;;;;;9.63;3.13;;;30.30;48.20;;;;;;5054663;28;20549;-73
2022/06/04 12:41:50;;;;;;;3.42;1.55;;;30.60;46.20;;;;;;5059107;28;20036;-73
2022/06/04 12:44:25;;;;;;;1.45;1.15;;;30.80;46.40;;;;;;5054701;28;20024;-73
2022/06/04 12:46:54;;;;;;;5.75;1.65;;;31.00;43.70;;;;;;5072484;28;20024;-72
2022/06/04 12:49:28;;;;;;;3.38;1.30;;;31.10;43.20;;;;;;5072613;28;20074;-72
2022/06/04 12:52:07;;;;;;;2.70;1.45;;;31.20;45.30;;;;;;5072953;28;20029;-73
2022/06/04 12:54:49;;;;;;;2.45;1.25;;;31.20;44.50;;;;;;5054091;28;20407;-72
2022/06/04 12:57:21;;;;;;;3.40;1.25;;;31.10;45.00;;;;;;5054676;28;20460;-73
2022/06/04 12:59:50;;;;;;;3.22;0.90;;;31.00;42.70;;;;;;5054562;28;20025;-72
2022/06/04 13:02:35;;;;;;;2.08;1.30;;;30.90;42.40;;;;;;5072629;28;20024;-72
2022/06/04 13:05:20;;;;;;;4.72;1.55;;;30.80;43.30;;;;;;5072132;28;20028;-72
2022/06/04 13:08:19;;;;;;;1.98;1.40;;;30.70;42.50;;;;;;5054215;28;20464;-73
2022/06/04 13:10:57;;;;;;;3.17;2.08;;;30.70;42.90;;;;;;5071750;28;20064;-72
2022/06/04 13:13:45;;;;;;;3.00;1.90;;;30.70;43.50;;;;;;5054459;28;20024;-72
2022/06/04 13:16:30;;;;;;;8.70;3.28;;;30.60;44.30;;;;;;5054403;28;20076;-72
2022/06/04 13:19:08;;;;;;;5.22;1.98;;;30.70;43.10;;;;;;5074133;28;20475;-73
2022/06/04 13:21:42;;;;;;;5.88;1.58;;;30.70;44.40;;;;;;5058053;28;20120;-72
2022/06/04 13:24:32;;;;;;;4.18;1.83;;;30.90;44.20;;;;;;5075536;28;20549;-72
2022/06/04 13:27:02;;;;;;;3.35;1.80;;;31.30;43.80;;;;;;5074262;28;20024;-72
2022/06/04 13:29:36;;;;;;;2.70;1.75;;;31.60;42.60;;;;;;5058044;28;20395;-72
2022/06/04 13:32:21;;;;;;;6.28;2.58;;;32.20;41.10;;;;;;5094920;28;20028;-73
2022/06/04 13:34:49;;;;;;;3.67;2.53;;;32.70;41.70;;;;;;5085399;28;20033;-72